sensor_id;sensor_type;location;lat;lon;timestamp;pressure;altitude;pressure_sealevel;temperature;humidity
32251;BME280;41295;48.518;9.206;2023-05-29T00:01:55;97194.34;;;16.68;54.95
32251;BME280;41295;48.518;9.206;2023-05-29T00:03:57;97197.41;;;16.62;55.06
32251;BME280;41295;48.518;9.206;2023-05-29T00:06:02;97192.41;;;16.57;55.30
32251;BME280;41295;48.518;9.206;2023-05-29T00:08:05;97183.59;;;16.58;55.07
32251;BME280;41295;48.518;9.206;2023-05-29T00:10:09;97194.94;;;16.58;55.02
32251;BME280;41295;48.518;9.206;2023-05-29T00:12:13;97196.81;;;16.56;54.83
32251;BME280;41295;48.518;9.206;2023-05-29T00:14:16;97195.13;;;16.55;54.79
32251;BME280;41295;48.518;9.206;2023-05-29T00:16:20;97196.81;;;16.56;54.71
32251;BME280;41295;48.518;9.206;2023-05-29T00:18:24;97198.41;;;16.59;54.79
32251;BME280;41295;48.518;9.206;2023-05-29T00:20:28;97194.84;;;16.60;54.87
32251;BME280;41295;48.518;9.206;2023-05-29T00:22:31;97197.56;;;16.58;54.96
32251;BME280;41295;48.518;9.206;2023-05-29T00:24:33;97202.06;;;16.56;54.98
32251;BME280;41295;48.518;9.206;2023-05-29T00:26:36;97192.72;;;16.52;55.24
32251;BME280;41295;48.518;9.206;2023-05-29T00:28:40;97199.19;;;16.46;55.30
32251;BME280;41295;48.518;9.206;2023-05-29T00:30:43;97191.59;;;16.42;55.13
32251;BME280;41295;48.518;9.206;2023-05-29T00:32:45;97189.16;;;16.39;55.27
32251;BME280;41295;48.518;9.206;2023-05-29T00:34:48;97183.97;;;16.37;55.15
32251;BME280;41295;48.518;9.206;2023-05-29T00:36:51;97189.53;;;16.32;55.17
32251;BME280;41295;48.518;9.206;2023-05-29T00:38:56;97185.31;;;16.30;55.20
32251;BME280;41295;48.518;9.206;2023-05-29T00:40:58;97182.03;;;16.26;55.01
32251;BME280;41295;48.518;9.206;2023-05-29T00:43:01;97182.03;;;16.26;55.04
32251;BME280;41295;48.518;9.206;2023-05-29T00:45:06;97176.09;;;16.22;54.92
32251;BME280;41295;48.518;9.206;2023-05-29T00:47:09;97176.22;;;16.21;55.04
32251;BME280;41295;48.518;9.206;2023-05-29T00:49:13;97176.41;;;16.18;55.29
32251;BME280;41295;48.518;9.206;2023-05-29T00:51:16;97166.28;;;16.11;55.26
32251;BME280;41295;48.518;9.206;2023-05-29T00:53:19;97172.66;;;16.07;55.25
32251;BME280;41295;48.518;9.206;2023-05-29T00:55:22;97172.09;;;16.02;55.49
32251;BME280;41295;48.518;9.206;2023-05-29T00:57:25;97181.94;;;15.98;55.45
32251;BME280;41295;48.518;9.206;2023-05-29T00:59:31;97182.19;;;15.94;55.89
32251;BME280;41295;48.518;9.206;2023-05-29T01:01:35;97187.53;;;15.92;55.81
32251;BME280;41295;48.518;9.206;2023-05-29T01:03:39;97185.88;;;15.91;55.77
32251;BME280;41295;48.518;9.206;2023-05-29T01:05:42;97185.22;;;15.87;55.80
32251;BME280;41295;48.518;9.206;2023-05-29T01:07:45;97178.34;;;15.85;55.76
32251;BME280;41295;48.518;9.206;2023-05-29T01:09:47;97180.41;;;15.80;55.99
32251;BME280;41295;48.518;9.206;2023-05-29T01:11:58;97190.19;;;15.78;56.28
32251;BME280;41295;48.518;9.206;2023-05-29T01:14:08;97189.16;;;15.80;56.17
32251;BME280;41295;48.518;9.206;2023-05-29T01:16:15;97194.22;;;15.83;56.30
32251;BME280;41295;48.518;9.206;2023-05-29T01:18:31;97189.72;;;15.85;55.99
32251;BME280;41295;48.518;9.206;2023-05-29T01:20:40;97193.28;;;15.84;56.05
32251;BME280;41295;48.518;9.206;2023-05-29T01:23:12;97194.41;;;15.80;55.78
32251;BME280;41295;48.518;9.206;2023-05-29T01:25:23;97193.09;;;15.73;56.06
32251;BME280;41295;48.518;9.206;2023-05-29T01:27:28;97195.25;;;15.66;56.27
32251;BME280;41295;48.518;9.206;2023-05-29T01:29:34;97191.28;;;15.59;55.93
32251;BME280;41295;48.518;9.206;2023-05-29T01:31:37;97189.66;;;15.56;56.10
32251;BME280;41295;48.518;9.206;2023-05-29T01:33:40;97188.94;;;15.54;56.03
32251;BME280;41295;48.518;9.206;2023-05-29T01:35:43;97193.69;;;15.47;56.07
32251;BME280;41295;48.518;9.206;2023-05-29T01:37:45;97189.81;;;15.38;56.29
32251;BME280;41295;48.518;9.206;2023-05-29T01:39:48;97197.13;;;15.33;56.30
32251;BME280;41295;48.518;9.206;2023-05-29T01:41:51;97193.94;;;15.28;56.49
32251;BME280;41295;48.518;9.206;2023-05-29T01:43:58;97189.81;;;15.24;56.56
32251;BME280;41295;48.518;9.206;2023-05-29T01:46:02;97188.97;;;15.23;56.62
32251;BME280;41295;48.518;9.206;2023-05-29T01:48:05;97190.81;;;15.21;56.56
32251;BME280;41295;48.518;9.206;2023-05-29T01:50:09;97191.00;;;15.18;56.65
32251;BME280;41295;48.518;9.206;2023-05-29T01:52:13;97190.16;;;15.18;56.65
32251;BME280;41295;48.518;9.206;2023-05-29T01:54:15;97188.28;;;15.20;56.81
32251;BME280;41295;48.518;9.206;2023-05-29T01:56:19;97194.53;;;15.17;56.76
32251;BME280;41295;48.518;9.206;2023-05-29T01:58:23;97187.91;;;15.11;57.13
32251;BME280;41295;48.518;9.206;2023-05-29T02:00:27;97192.38;;;15.09;57.12
32251;BME280;41295;48.518;9.206;2023-05-29T02:02:31;97193.31;;;15.08;57.32
32251;BME280;41295;48.518;9.206;2023-05-29T02:04:33;97190.75;;;15.07;57.24
32251;BME280;41295;48.518;9.206;2023-05-29T02:06:36;97190.59;;;15.10;57.57
32251;BME280;41295;48.518;9.206;2023-05-29T02:08:39;97192.09;;;15.14;57.26
32251;BME280;41295;48.518;9.206;2023-05-29T02:10:42;97187.72;;;15.14;57.40
32251;BME280;41295;48.518;9.206;2023-05-29T02:12:44;97193.06;;;15.13;57.16
32251;BME280;41295;48.518;9.206;2023-05-29T02:14:47;97185.44;;;15.08;57.28
32251;BME280;41295;48.518;9.206;2023-05-29T02:16:51;97184.69;;;15.06;57.43
32251;BME280;41295;48.518;9.206;2023-05-29T02:18:54;97190.19;;;15.01;57.62
32251;BME280;41295;48.518;9.206;2023-05-29T02:20:57;97191.91;;;15.02;57.41
32251;BME280;41295;48.518;9.206;2023-05-29T02:23:00;97199.00;;;15.00;57.63
32251;BME280;41295;48.518;9.206;2023-05-29T02:25:03;97200.78;;;15.00;57.77
32251;BME280;41295;48.518;9.206;2023-05-29T02:27:06;97205.19;;;14.99;57.64
32251;BME280;41295;48.518;9.206;2023-05-29T02:29:08;97200.69;;;15.01;57.53
32251;BME280;41295;48.518;9.206;2023-05-29T02:31:12;97201.63;;;15.00;57.47
32251;BME280;41295;48.518;9.206;2023-05-29T02:33:16;97209.59;;;14.99;57.41
32251;BME280;41295;48.518;9.206;2023-05-29T02:35:19;97200.97;;;14.97;57.55
32251;BME280;41295;48.518;9.206;2023-05-29T02:37:23;97199.25;;;14.96;57.46
32251;BME280;41295;48.518;9.206;2023-05-29T02:39:27;97204.69;;;14.93;57.71
32251;BME280;41295;48.518;9.206;2023-05-29T02:41:29;97204.09;;;14.87;57.90
32251;BME280;41295;48.518;9.206;2023-05-29T02:43:32;97204.09;;;14.87;57.99
32251;BME280;41295;48.518;9.206;2023-05-29T02:45:35;97201.38;;;14.89;57.97
32251;BME280;41295;48.518;9.206;2023-05-29T02:47:37;97194.47;;;14.88;57.96
32251;BME280;41295;48.518;9.206;2023-05-29T02:49:42;97196.13;;;14.89;57.87
32251;BME280;41295;48.518;9.206;2023-05-29T02:51:44;97190.72;;;14.92;57.85
32251;BME280;41295;48.518;9.206;2023-05-29T02:53:47;97196.63;;;14.96;57.34
32251;BME280;41295;48.518;9.206;2023-05-29T02:55:50;97185.44;;;14.92;57.15
32251;BME280;41295;48.518;9.206;2023-05-29T02:57:53;97193.41;;;14.90;57.32
32251;BME280;41295;48.518;9.206;2023-05-29T02:59:57;97189.34;;;14.85;57.35
32251;BME280;41295;48.518;9.206;2023-05-29T03:02:00;97190.53;;;14.79;57.29
32251;BME280;41295;48.518;9.206;2023-05-29T03:04:03;97192.63;;;14.72;57.21
32251;BME280;41295;48.518;9.206;2023-05-29T03:06:07;97191.22;;;14.66;57.65
32251;BME280;41295;48.518;9.206;2023-05-29T03:08:11;97189.97;;;14.58;57.98
32251;BME280;41295;48.518;9.206;2023-05-29T03:10:14;97190.47;;;14.48;58.30
32251;BME280;41295;48.518;9.206;2023-05-29T03:12:18;97186.56;;;14.39;58.31
32251;BME280;41295;48.518;9.206;2023-05-29T03:14:21;97193.06;;;14.32;58.87
32251;BME280;41295;48.518;9.206;2023-05-29T03:16:23;97187.16;;;14.28;59.07
32251;BME280;41295;48.518;9.206;2023-05-29T03:18:26;97189.78;;;14.28;59.05
32251;BME280;41295;48.518;9.206;2023-05-29T03:20:29;97180.97;;;14.29;59.22
32251;BME280;41295;48.518;9.206;2023-05-29T03:22:33;97178.97;;;14.35;59.00
32251;BME280;41295;48.518;9.206;2023-05-29T03:24:36;97179.78;;;14.35;58.65
32251;BME280;41295;48.518;9.206;2023-05-29T03:26:39;97175.47;;;14.34;58.68
32251;BME280;41295;48.518;9.206;2023-05-29T03:28:42;97173.03;;;14.31;59.06
32251;BME280;41295;48.518;9.206;2023-05-29T03:30:44;97178.50;;;14.26;59.05
32251;BME280;41295;48.518;9.206;2023-05-29T03:32:47;97177.91;;;14.21;59.41
32251;BME280;41295;48.518;9.206;2023-05-29T03:34:50;97183.44;;;14.16;59.63
32251;BME280;41295;48.518;9.206;2023-05-29T03:36:52;97177.50;;;14.13;59.52
32251;BME280;41295;48.518;9.206;2023-05-29T03:38:56;97183.56;;;14.13;59.48
32251;BME280;41295;48.518;9.206;2023-05-29T03:40:59;97184.25;;;14.17;59.26
32251;BME280;41295;48.518;9.206;2023-05-29T03:43:02;97184.09;;;14.20;59.22
32251;BME280;41295;48.518;9.206;2023-05-29T03:45:05;97178.00;;;14.19;59.41
32251;BME280;41295;48.518;9.206;2023-05-29T03:47:08;97186.66;;;14.22;59.41
32251;BME280;41295;48.518;9.206;2023-05-29T03:49:11;97183.94;;;14.23;59.71
32251;BME280;41295;48.518;9.206;2023-05-29T03:51:13;97192.31;;;14.30;59.67
32251;BME280;41295;48.518;9.206;2023-05-29T03:53:16;97196.22;;;14.39;59.52
32251;BME280;41295;48.518;9.206;2023-05-29T03:55:20;97189.88;;;14.43;59.25
32251;BME280;41295;48.518;9.206;2023-05-29T03:57:23;97188.78;;;14.47;59.12
32251;BME280;41295;48.518;9.206;2023-05-29T03:59:27;97190.19;;;14.53;58.87
32251;BME280;41295;48.518;9.206;2023-05-29T04:01:30;97190.78;;;14.58;58.71
32251;BME280;41295;48.518;9.206;2023-05-29T04:03:32;97195.88;;;14.61;58.67
32251;BME280;41295;48.518;9.206;2023-05-29T04:05:38;97195.22;;;14.58;58.64
32251;BME280;41295;48.518;9.206;2023-05-29T04:07:41;97195.31;;;14.56;58.44
32251;BME280;41295;48.518;9.206;2023-05-29T04:09:44;97195.44;;;14.53;58.93
32251;BME280;41295;48.518;9.206;2023-05-29T04:11:48;97199.09;;;14.50;58.82
32251;BME280;41295;48.518;9.206;2023-05-29T04:13:53;97205.44;;;14.46;59.25
32251;BME280;41295;48.518;9.206;2023-05-29T04:15:55;97208.16;;;14.45;59.39
32251;BME280;41295;48.518;9.206;2023-05-29T04:17:58;97216.19;;;14.41;59.35
32251;BME280;41295;48.518;9.206;2023-05-29T04:20:02;97215.50;;;14.38;59.45
32251;BME280;41295;48.518;9.206;2023-05-29T04:22:09;97227.00;;;14.35;59.77
32251;BME280;41295;48.518;9.206;2023-05-29T04:24:12;97226.19;;;14.35;60.07
32251;BME280;41295;48.518;9.206;2023-05-29T04:26:15;97226.91;;;14.37;59.77
32251;BME280;41295;48.518;9.206;2023-05-29T04:28:19;97228.72;;;14.36;59.71
32251;BME280;41295;48.518;9.206;2023-05-29T04:30:23;97230.41;;;14.37;59.97
32251;BME280;41295;48.518;9.206;2023-05-29T04:32:25;97232.84;;;14.40;59.94
32251;BME280;41295;48.518;9.206;2023-05-29T04:34:28;97232.75;;;14.42;59.89
32251;BME280;41295;48.518;9.206;2023-05-29T04:36:31;97238.69;;;14.46;60.03
32251;BME280;41295;48.518;9.206;2023-05-29T04:38:34;97240.13;;;14.51;59.82
32251;BME280;41295;48.518;9.206;2023-05-29T04:40:38;97234.56;;;14.58;59.97
32251;BME280;41295;48.518;9.206;2023-05-29T04:42:44;97229.72;;;14.66;59.70
32251;BME280;41295;48.518;9.206;2023-05-29T04:44:49;97243.63;;;14.68;59.08
32251;BME280;41295;48.518;9.206;2023-05-29T04:46:51;97247.00;;;14.70;58.76
32251;BME280;41295;48.518;9.206;2023-05-29T04:48:54;97243.34;;;14.73;58.80
32251;BME280;41295;48.518;9.206;2023-05-29T04:50:57;97248.44;;;14.76;59.18
32251;BME280;41295;48.518;9.206;2023-05-29T04:53:01;97247.59;;;14.75;59.58
32251;BME280;41295;48.518;9.206;2023-05-29T04:55:04;97249.19;;;14.78;59.49
32251;BME280;41295;48.518;9.206;2023-05-29T04:57:07;97253.53;;;14.79;59.74
32251;BME280;41295;48.518;9.206;2023-05-29T04:59:09;97261.50;;;14.77;59.80
32251;BME280;41295;48.518;9.206;2023-05-29T05:01:14;97258.69;;;14.81;60.20
32251;BME280;41295;48.518;9.206;2023-05-29T05:03:16;97259.50;;;14.83;59.90
32251;BME280;41295;48.518;9.206;2023-05-29T05:05:19;97266.41;;;14.84;60.33
32251;BME280;41295;48.518;9.206;2023-05-29T05:07:22;97263.53;;;14.88;60.04
32251;BME280;41295;48.518;9.206;2023-05-29T05:09:25;97272.09;;;14.92;59.88
32251;BME280;41295;48.518;9.206;2023-05-29T05:11:27;97267.78;;;14.91;60.21
32251;BME280;41295;48.518;9.206;2023-05-29T05:13:30;97269.88;;;14.68;59.60
32251;BME280;41295;48.518;9.206;2023-05-29T05:15:33;97271.53;;;14.53;60.90
32251;BME280;41295;48.518;9.206;2023-05-29T05:17:37;97270.28;;;14.60;60.57
32251;BME280;41295;48.518;9.206;2023-05-29T05:19:39;97268.16;;;14.67;60.44
32251;BME280;41295;48.518;9.206;2023-05-29T05:21:42;97260.06;;;14.72;60.54
32251;BME280;41295;48.518;9.206;2023-05-29T05:23:45;97269.28;;;14.79;60.40
32251;BME280;41295;48.518;9.206;2023-05-29T05:25:59;97269.91;;;14.84;60.22
32251;BME280;41295;48.518;9.206;2023-05-29T05:28:01;97266.91;;;14.90;59.92
32251;BME280;41295;48.518;9.206;2023-05-29T05:30:06;97270.00;;;14.99;59.76
32251;BME280;41295;48.518;9.206;2023-05-29T05:32:09;97271.50;;;15.03;59.70
32251;BME280;41295;48.518;9.206;2023-05-29T05:34:13;97272.94;;;15.09;59.93
32251;BME280;41295;48.518;9.206;2023-05-29T05:36:15;97269.97;;;15.15;59.85
32251;BME280;41295;48.518;9.206;2023-05-29T05:38:18;97270.56;;;15.20;59.39
32251;BME280;41295;48.518;9.206;2023-05-29T05:40:21;97275.53;;;15.25;59.35
32251;BME280;41295;48.518;9.206;2023-05-29T05:42:23;97278.84;;;15.29;59.41
32251;BME280;41295;48.518;9.206;2023-05-29T05:44:26;97282.91;;;15.34;59.36
32251;BME280;41295;48.518;9.206;2023-05-29T05:46:29;97275.78;;;15.36;59.50
32251;BME280;41295;48.518;9.206;2023-05-29T05:48:32;97278.31;;;15.38;59.01
32251;BME280;41295;48.518;9.206;2023-05-29T05:50:36;97279.00;;;15.42;58.92
32251;BME280;41295;48.518;9.206;2023-05-29T05:52:38;97275.22;;;15.46;58.81
32251;BME280;41295;48.518;9.206;2023-05-29T05:54:41;97280.25;;;15.50;58.87
32251;BME280;41295;48.518;9.206;2023-05-29T05:56:44;97285.22;;;15.55;58.95
32251;BME280;41295;48.518;9.206;2023-05-29T05:58:46;97291.25;;;15.57;59.21
32251;BME280;41295;48.518;9.206;2023-05-29T06:00:51;97292.00;;;15.59;59.33
32251;BME280;41295;48.518;9.206;2023-05-29T06:02:54;97293.59;;;15.62;59.50
32251;BME280;41295;48.518;9.206;2023-05-29T06:04:57;97290.81;;;15.65;59.03
32251;BME280;41295;48.518;9.206;2023-05-29T06:07:01;97287.03;;;15.69;58.74
32251;BME280;41295;48.518;9.206;2023-05-29T06:09:03;97286.84;;;15.72;58.33
32251;BME280;41295;48.518;9.206;2023-05-29T06:11:06;97286.69;;;15.75;58.39
32251;BME280;41295;48.518;9.206;2023-05-29T06:13:09;97284.84;;;15.78;58.11
32251;BME280;41295;48.518;9.206;2023-05-29T06:15:12;97290.81;;;15.80;58.22
32251;BME280;41295;48.518;9.206;2023-05-29T06:17:15;97283.69;;;15.82;58.06
32251;BME280;41295;48.518;9.206;2023-05-29T06:19:17;97290.56;;;15.84;57.41
32251;BME280;41295;48.518;9.206;2023-05-29T06:21:20;97295.63;;;15.87;57.26
32251;BME280;41295;48.518;9.206;2023-05-29T06:23:25;97297.88;;;15.94;57.41
32251;BME280;41295;48.518;9.206;2023-05-29T06:25:27;97292.38;;;15.98;57.56
32251;BME280;41295;48.518;9.206;2023-05-29T06:27:34;97298.34;;;16.02;57.52
32251;BME280;41295;48.518;9.206;2023-05-29T06:29:39;97292.03;;;16.05;57.40
32251;BME280;41295;48.518;9.206;2023-05-29T06:31:42;97291.00;;;16.07;57.17
32251;BME280;41295;48.518;9.206;2023-05-29T06:33:45;97298.81;;;16.09;56.39
32251;BME280;41295;48.518;9.206;2023-05-29T06:35:48;97296.84;;;16.13;56.21
32251;BME280;41295;48.518;9.206;2023-05-29T06:37:51;97297.59;;;16.15;56.36
32251;BME280;41295;48.518;9.206;2023-05-29T06:39:55;97301.81;;;16.17;56.93
32251;BME280;41295;48.518;9.206;2023-05-29T06:41:58;97301.66;;;16.20;56.94
32251;BME280;41295;48.518;9.206;2023-05-29T06:44:00;97297.03;;;16.24;56.73
32251;BME280;41295;48.518;9.206;2023-05-29T06:46:03;97306.53;;;16.27;56.65
32251;BME280;41295;48.518;9.206;2023-05-29T06:48:06;97311.44;;;16.33;56.49
32251;BME280;41295;48.518;9.206;2023-05-29T06:50:09;97306.81;;;16.37;56.37
32251;BME280;41295;48.518;9.206;2023-05-29T06:52:12;97302.38;;;16.37;56.29
32251;BME280;41295;48.518;9.206;2023-05-29T06:54:14;97310.03;;;16.42;56.33
32251;BME280;41295;48.518;9.206;2023-05-29T06:56:18;97318.63;;;16.44;57.04
32251;BME280;41295;48.518;9.206;2023-05-29T06:58:21;97315.00;;;16.46;57.02
32251;BME280;41295;48.518;9.206;2023-05-29T07:00:24;97315.75;;;16.49;56.74
32251;BME280;41295;48.518;9.206;2023-05-29T07:02:27;97316.41;;;16.52;56.92
32251;BME280;41295;48.518;9.206;2023-05-29T07:04:29;97314.34;;;16.57;57.09
32251;BME280;41295;48.518;9.206;2023-05-29T07:06:32;97309.81;;;16.59;56.88
32251;BME280;41295;48.518;9.206;2023-05-29T07:08:35;97313.00;;;16.65;56.71
32251;BME280;41295;48.518;9.206;2023-05-29T07:10:37;97311.13;;;16.67;57.19
32251;BME280;41295;48.518;9.206;2023-05-29T07:12:41;97311.03;;;16.68;57.38
32251;BME280;41295;48.518;9.206;2023-05-29T07:14:44;97316.97;;;16.72;57.96
32251;BME280;41295;48.518;9.206;2023-05-29T07:16:49;97320.31;;;16.74;58.28
32251;BME280;41295;48.518;9.206;2023-05-29T07:18:52;97316.56;;;16.78;57.42
32251;BME280;41295;48.518;9.206;2023-05-29T07:20:55;97313.00;;;16.79;57.68
32251;BME280;41295;48.518;9.206;2023-05-29T07:22:58;97314.69;;;16.80;57.59
32251;BME280;41295;48.518;9.206;2023-05-29T07:25:02;97322.28;;;16.85;57.63
32251;BME280;41295;48.518;9.206;2023-05-29T07:27:05;97323.69;;;16.91;57.54
32251;BME280;41295;48.518;9.206;2023-05-29T07:29:09;97323.69;;;16.91;57.42
32251;BME280;41295;48.518;9.206;2023-05-29T07:31:12;97324.66;;;16.90;58.09
32251;BME280;41295;48.518;9.206;2023-05-29T07:33:15;97329.41;;;16.98;58.18
32251;BME280;41295;48.518;9.206;2023-05-29T07:35:18;97328.38;;;17.00;57.91
32251;BME280;41295;48.518;9.206;2023-05-29T07:37:20;97326.41;;;17.04;58.28
32251;BME280;41295;48.518;9.206;2023-05-29T07:39:23;97330.44;;;17.10;58.18
32251;BME280;41295;48.518;9.206;2023-05-29T07:41:26;97327.75;;;17.11;58.22
32251;BME280;41295;48.518;9.206;2023-05-29T07:43:28;97324.91;;;17.14;57.85
32251;BME280;41295;48.518;9.206;2023-05-29T07:45:33;97329.97;;;17.17;57.64
32251;BME280;41295;48.518;9.206;2023-05-29T07:47:35;97330.53;;;17.23;57.72
32251;BME280;41295;48.518;9.206;2023-05-29T07:49:39;97337.19;;;17.28;57.95
32251;BME280;41295;48.518;9.206;2023-05-29T07:51:42;97333.53;;;17.31;57.67
32251;BME280;41295;48.518;9.206;2023-05-29T07:53:45;97331.44;;;17.36;57.50
32251;BME280;41295;48.518;9.206;2023-05-29T07:55:48;97331.97;;;17.41;57.31
32251;BME280;41295;48.518;9.206;2023-05-29T07:57:51;97335.75;;;17.37;56.49
32251;BME280;41295;48.518;9.206;2023-05-29T07:59:54;97335.47;;;17.42;57.25
32251;BME280;41295;48.518;9.206;2023-05-29T08:01:58;97335.91;;;17.49;56.66
32251;BME280;41295;48.518;9.206;2023-05-29T08:04:03;97337.22;;;17.56;56.14
32251;BME280;41295;48.518;9.206;2023-05-29T08:06:06;97338.56;;;17.62;56.57
32251;BME280;41295;48.518;9.206;2023-05-29T08:08:09;97336.56;;;17.65;57.02
32251;BME280;41295;48.518;9.206;2023-05-29T08:10:14;97340.59;;;17.71;56.29
32251;BME280;41295;48.518;9.206;2023-05-29T08:12:16;97334.94;;;17.77;56.12
32251;BME280;41295;48.518;9.206;2023-05-29T08:14:19;97332.84;;;17.83;56.20
32251;BME280;41295;48.518;9.206;2023-05-29T08:16:22;97327.34;;;17.86;56.13
32251;BME280;41295;48.518;9.206;2023-05-29T08:18:26;97327.88;;;17.91;56.58
32251;BME280;41295;48.518;9.206;2023-05-29T08:20:29;97330.53;;;17.91;55.95
32251;BME280;41295;48.518;9.206;2023-05-29T08:22:32;97334.34;;;18.00;55.37
32251;BME280;41295;48.518;9.206;2023-05-29T08:24:35;97327.06;;;18.03;55.06
32251;BME280;41295;48.518;9.206;2023-05-29T08:26:38;97329.38;;;18.08;55.46
32251;BME280;41295;48.518;9.206;2023-05-29T08:28:40;97330.78;;;18.14;55.51
32251;BME280;41295;48.518;9.206;2023-05-29T08:30:43;97325.31;;;18.17;55.20
32251;BME280;41295;48.518;9.206;2023-05-29T08:32:46;97321.63;;;18.20;55.02
32251;BME280;41295;48.518;9.206;2023-05-29T08:34:50;97325.31;;;18.17;54.29
32251;BME280;41295;48.518;9.206;2023-05-29T08:36:53;97323.13;;;18.24;53.76
32251;BME280;41295;48.518;9.206;2023-05-29T08:38:57;97327.31;;;18.26;53.88
32251;BME280;41295;48.518;9.206;2023-05-29T08:41:00;97320.91;;;18.31;54.10
32251;BME280;41295;48.518;9.206;2023-05-29T08:43:07;97320.91;;;18.31;54.26
32251;BME280;41295;48.518;9.206;2023-05-29T08:45:13;97317.81;;;18.37;53.60
32251;BME280;41295;48.518;9.206;2023-05-29T08:47:17;97323.00;;;18.38;54.19
32251;BME280;41295;48.518;9.206;2023-05-29T08:49:22;97329.00;;;18.41;54.35
32251;BME280;41295;48.518;9.206;2023-05-29T08:51:31;97317.75;;;18.38;54.25
32251;BME280;41295;48.518;9.206;2023-05-29T08:53:36;97319.94;;;18.45;54.24
32251;BME280;41295;48.518;9.206;2023-05-29T08:55:40;97326.81;;;18.47;54.74
32251;BME280;41295;48.518;9.206;2023-05-29T08:57:43;97317.94;;;18.48;54.75
32251;BME280;41295;48.518;9.206;2023-05-29T08:59:47;97317.47;;;18.55;54.29
32251;BME280;41295;48.518;9.206;2023-05-29T09:01:52;97318.22;;;18.57;54.62
32251;BME280;41295;48.518;9.206;2023-05-29T09:03:54;97318.03;;;18.60;54.81
32251;BME280;41295;48.518;9.206;2023-05-29T09:05:58;97318.44;;;18.67;55.09
32251;BME280;41295;48.518;9.206;2023-05-29T09:08:02;97311.16;;;18.70;54.99
32251;BME280;41295;48.518;9.206;2023-05-29T09:10:06;97315.34;;;18.73;55.62
32251;BME280;41295;48.518;9.206;2023-05-29T09:12:09;97313.13;;;18.80;54.84
32251;BME280;41295;48.518;9.206;2023-05-29T09:14:34;97317.25;;;18.84;55.04
32251;BME280;41295;48.518;9.206;2023-05-29T09:16:41;97313.22;;;18.91;55.87
32251;BME280;41295;48.518;9.206;2023-05-29T09:18:44;97321.66;;;18.96;55.91
32251;BME280;41295;48.518;9.206;2023-05-29T09:20:48;97316.88;;;19.02;54.82
32251;BME280;41295;48.518;9.206;2023-05-29T09:22:55;97315.94;;;19.03;54.68
32251;BME280;41295;48.518;9.206;2023-05-29T09:24:59;97315.47;;;19.09;54.26
32251;BME280;41295;48.518;9.206;2023-05-29T09:27:03;97312.22;;;19.18;54.81
32251;BME280;41295;48.518;9.206;2023-05-29T09:29:06;97309.34;;;19.21;54.29
32251;BME280;41295;48.518;9.206;2023-05-29T09:31:14;97310.81;;;19.26;53.66
32251;BME280;41295;48.518;9.206;2023-05-29T09:33:16;97310.34;;;19.32;52.24
32251;BME280;41295;48.518;9.206;2023-05-29T09:35:19;97308.22;;;19.37;52.20
32251;BME280;41295;48.518;9.206;2023-05-29T09:37:25;97307.78;;;19.43;53.22
32251;BME280;41295;48.518;9.206;2023-05-29T09:39:27;97306.47;;;19.49;50.70
32251;BME280;41295;48.518;9.206;2023-05-29T09:41:32;97306.47;;;19.49;50.71
32251;BME280;41295;48.518;9.206;2023-05-29T09:43:35;97313.59;;;19.60;50.60
32251;BME280;41295;48.518;9.206;2023-05-29T09:45:44;97312.41;;;19.64;51.30
32251;BME280;41295;48.518;9.206;2023-05-29T09:47:48;97310.41;;;19.68;50.53
32251;BME280;41295;48.518;9.206;2023-05-29T09:49:53;97315.00;;;19.77;50.56
32251;BME280;41295;48.518;9.206;2023-05-29T09:51:56;97305.88;;;19.81;50.26
32251;BME280;41295;48.518;9.206;2023-05-29T09:54:15;97310.94;;;19.85;50.66
32251;BME280;41295;48.518;9.206;2023-05-29T09:56:18;97309.63;;;19.90;51.65
32251;BME280;41295;48.518;9.206;2023-05-29T09:58:23;97313.97;;;19.91;50.87
32251;BME280;41295;48.518;9.206;2023-05-29T10:00:26;97309.91;;;19.99;49.00
32251;BME280;41295;48.518;9.206;2023-05-29T10:02:30;97313.78;;;20.06;49.96
32251;BME280;41295;48.518;9.206;2023-05-29T10:04:35;97310.78;;;20.11;49.55
32251;BME280;41295;48.518;9.206;2023-05-29T10:06:41;97312.25;;;20.15;49.56
32251;BME280;41295;48.518;9.206;2023-05-29T10:08:46;97302.16;;;20.20;46.89
32251;BME280;41295;48.518;9.206;2023-05-29T10:10:56;97297.69;;;20.21;46.99
32251;BME280;41295;48.518;9.206;2023-05-29T10:13:02;97304.44;;;20.25;47.01
32251;BME280;41295;48.518;9.206;2023-05-29T10:15:11;97308.41;;;20.30;46.43
32251;BME280;41295;48.518;9.206;2023-05-29T10:17:15;97307.22;;;20.35;46.02
32251;BME280;41295;48.518;9.206;2023-05-29T10:19:25;97314.44;;;20.44;47.03
32251;BME280;41295;48.518;9.206;2023-05-29T10:21:29;97309.66;;;20.49;47.36
32251;BME280;41295;48.518;9.206;2023-05-29T10:23:33;97304.94;;;20.53;48.26
32251;BME280;41295;48.518;9.206;2023-05-29T10:25:39;97309.16;;;20.55;46.22
32251;BME280;41295;48.518;9.206;2023-05-29T10:27:43;97303.59;;;20.70;46.47
32251;BME280;41295;48.518;9.206;2023-05-29T10:29:49;97297.72;;;20.66;46.81
32251;BME280;41295;48.518;9.206;2023-05-29T10:32:07;97295.66;;;20.70;46.07
32251;BME280;41295;48.518;9.206;2023-05-29T10:34:25;97299.38;;;20.79;46.35
32251;BME280;41295;48.518;9.206;2023-05-29T10:36:35;97297.22;;;20.84;46.72
32251;BME280;41295;48.518;9.206;2023-05-29T10:38:41;97298.41;;;20.91;46.95
32251;BME280;41295;48.518;9.206;2023-05-29T10:40:46;97300.59;;;20.98;47.24
32251;BME280;41295;48.518;9.206;2023-05-29T10:42:50;97309.25;;;21.00;47.05
32251;BME280;41295;48.518;9.206;2023-05-29T10:44:54;97299.38;;;21.02;44.73
32251;BME280;41295;48.518;9.206;2023-05-29T10:47:08;97295.41;;;21.08;45.22
32251;BME280;41295;48.518;9.206;2023-05-29T10:49:15;97296.25;;;21.08;44.65
32251;BME280;41295;48.518;9.206;2023-05-29T10:51:29;97305.63;;;21.12;44.01
32251;BME280;41295;48.518;9.206;2023-05-29T10:53:32;97294.66;;;21.17;44.94
32251;BME280;41295;48.518;9.206;2023-05-29T10:55:35;97302.94;;;21.24;46.00
32251;BME280;41295;48.518;9.206;2023-05-29T10:57:46;97292.69;;;21.31;43.40